Flight Track Log - Related Links

Times and Time Zones

All times are in EDT time to prevent confusion due to time zone crossing. See the DAL1979 flight status page for this flight to view local times or setup timezone preferences in your user account.

Time Position Orientation Groundspeed Altitude Reporting Facility
EDT Latitude Longitude Course Direction KTS MPH feet Rate Location/Type
Tue 03:59:27 PM 28.4360 -81.3220 355° North 181 208  Level FlightAware ADS-B
Tue 04:00:12 PM 28.4750 -81.3210 North 195 224 1,700 2,240 Climbing FlightAware ADS-B
Tue 04:00:42 PM 28.5040 -81.3190 North 211 243 2,800 2,600 Climbing FlightAware ADS-B
Tue 04:01:12 PM 28.5370 -81.3180 North 230 265 4,300 2,945 Climbing FlightAware ADS-B
Tue 04:01:37 PM 28.5630 -81.3240 349° North 247 284 5,500 2,850 Climbing FlightAware ADS-B
Tue 04:01:52 PM 28.5750 -81.3400 311° West 260 299 6,200 3,120 Climbing FlightAware ADS-B
Tue 04:02:02 PM 28.5790 -81.3520 291° West 259 298 6,800 3,600 Climbing FlightAware ADS-B
Tue 04:02:32 PM 28.5770 -81.3930 267° West 257 296 8,600 3,150 Climbing FlightAware ADS-B
Tue 04:02:42 PM 28.5750 -81.4070 261° West 269 310 8,900 1,467 Climbing FlightAware ADS-B
Tue 04:03:17 PM 28.5670 -81.4580 260° West 314 361 9,700 1,569 Climbing FlightAware ADS-B
Tue 04:03:47 PM 28.5590 -81.5110 260° West 344 396 10,600 2,400 Climbing FlightAware ADS-B
Tue 04:04:42 PM 28.5420 -81.6150 259° West 366 421 13,100 2,463 Climbing FlightAware ADS-B
Tue 04:05:22 PM 28.5330 -81.6900 262° West 386 444 14,500 2,400 Climbing FlightAware ADS-B
Tue 04:06:02 PM 28.5230 -81.7730 262° West 396 456 16,300 3,035 Climbing FlightAware ADS-B
Tue 04:06:47 PM 28.5120 -81.8680 263° West 405 466 18,800 3,247 Climbing FlightAware ADS-B
Tue 04:07:27 PM 28.5010 -81.9550 262° West 412 474 20,900 2,775 Climbing FlightAware ADS-B
Tue 04:08:07 PM 28.5050 -82.0340 273° West 419 482 22,500 2,280 Climbing FlightAware ADS-B
Tue 04:09:07 PM 28.5470 -82.1670 290° West 437 503 24,700 2,160 Climbing FlightAware ADS-B
Tue 04:09:47 PM 28.5730 -82.2570 288° West 450 518 26,100 1,650 Climbing FlightAware ADS-B
Tue 04:10:27 PM 28.5990 -82.3500 288° West 470 541 26,900 1,694 Climbing FlightAware ADS-B
Tue 04:11:12 PM 28.6290 -82.4570 288° West 468 539 28,500 2,118 Climbing FlightAware ADS-B
Tue 04:11:52 PM 28.6610 -82.5450 293° West 465 535 29,900 1,059 Climbing FlightAware ADS-B
Tue 04:12:37 PM 28.7270 -82.6250 313° West 473 544 30,000 71 Climbing FlightAware ADS-B
Tue 04:13:17 PM 28.7950 -82.6820 324° Northwest 470 541 30,000  Level FlightAware ADS-B
Tue 04:13:57 PM 28.8630 -82.7380 324° Northwest 468 539 30,000  Level FlightAware ADS-B
Tue 04:14:37 PM 28.9370 -82.7990 324° Northwest 465 535 30,000  Level FlightAware ADS-B
Tue 04:15:17 PM 29.0100 -82.8580 325° Northwest 462 532 30,000  Level FlightAware ADS-B
Tue 04:15:57 PM 29.0730 -82.9110 324° Northwest 461 531 30,000  Level FlightAware ADS-B
Tue 04:16:42 PM 29.1450 -82.9710 324° Northwest 461 531 30,000  Level FlightAware ADS-B
Tue 04:17:27 PM 29.2360 -83.0450 325° Northwest 459 528 30,000  Level FlightAware ADS-B
Tue 04:18:12 PM 29.3130 -83.1090 324° Northwest 458 527 30,000  Level FlightAware ADS-B
Tue 04:18:52 PM 29.3820 -83.1710 322° Northwest 458 527 30,000  Level FlightAware ADS-B
Tue 04:19:32 PM 29.4520 -83.2270 325° Northwest 461 531 30,000  Level FlightAware ADS-B
Tue 04:20:17 PM 29.5310 -83.2870 327° Northwest 455 524 30,000  Level FlightAware ADS-B
Tue 04:20:57 PM 29.6020 -83.3450 325° Northwest 461 531 30,000  Level FlightAware ADS-B
Tue 04:21:37 PM 29.6700 -83.4020 324° Northwest 462 532 30,000  Level FlightAware ADS-B
Tue 04:22:22 PM 29.7490 -83.4690 324° Northwest 462 532 30,000  Level FlightAware ADS-B
Tue 04:23:02 PM 29.8180 -83.5260 324° Northwest 461 531 30,000  Level FlightAware ADS-B
Tue 04:23:42 PM 29.8770 -83.5760 324° Northwest 462 532 30,000  Level FlightAware ADS-B
Tue 04:24:22 PM 29.9350 -83.6250 324° Northwest 462 532 30,000  Level FlightAware ADS-B
Tue 04:25:12 PM 30.0090 -83.6870 324° Northwest 462 532 30,000  Level FlightAware ADS-B
Tue 04:25:52 PM 30.0680 -83.7360 324° Northwest 462 532 30,000  Level FlightAware ADS-B
Tue 04:26:32 PM 30.1260 -83.7850 324° Northwest 462 532 30,000  Level FlightAware ADS-B
Tue 04:26:47 PM 30.8620 -84.0090 345° North 30,000  Level FlightAware ADS-B
Tue 04:27:27 PM 30.2880 -83.8780 169° South 462 532 30,000  Level FlightAware ADS-B
Tue 04:28:12 PM 30.3770 -83.9310 333° Northwest 464 534 30,000  Level FlightAware ADS-B
Tue 04:28:47 PM 30.4430 -83.9720 332° Northwest 464 534 30,000  Level FlightAware ADS-B
Tue 04:29:37 PM 30.5390 -84.0310 332° Northwest 465 535 30,000  Level FlightAware ADS-B
Tue 04:30:12 PM 30.6080 -84.0720 333° Northwest 464 534 30,000  Level FlightAware ADS-B
Tue 04:30:57 PM 30.6870 -84.1180 333° Northwest 465 535 30,000  Level FlightAware ADS-B
Tue 04:31:57 PM 30.8050 -84.1880 333° Northwest 464 534 30,000  Level FlightAware ADS-B
Tue 04:32:52 PM 30.9050 -84.2470 333° Northwest 464 534 30,000  Level FlightAware ADS-B
Tue 04:33:52 PM 31.0180 -84.3150 333° Northwest 463 533 30,000  Level FlightAware ADS-B
Tue 04:34:27 PM 30.9580 -84.2780 152° Southeast 461 531 30,000  Level FlightAware ADS-B
Tue 04:35:12 PM 31.0330 -84.3250 332° Northwest 461 531 30,000  Level FlightAware ADS-B
Tue 04:35:52 PM 31.0970 -84.3650 332° Northwest 461 531 30,000  Level FlightAware ADS-B
Tue 04:36:37 PM 31.3390 -84.5050 334° Northwest 461 531 30,000  Level FlightAware ADS-B
Tue 04:37:22 PM 31.4150 -84.5520 332° Northwest 461 531 30,000  Level FlightAware ADS-B
Tue 04:38:02 PM 31.4790 -84.5920 332° Northwest 461 531 30,000  Level FlightAware ADS-B
Tue 04:38:42 PM 31.5430 -84.6320 332° Northwest 461 531 30,000  Level FlightAware ADS-B
Tue 04:39:22 PM 31.6070 -84.6720 332° Northwest 461 531 30,000  Level FlightAware ADS-B
Tue 04:40:02 PM 31.6710 -84.7120 332° Northwest 461 531 30,000  Level FlightAware ADS-B
Tue 04:40:42 PM 31.7350 -84.7520 332° Northwest 461 531 30,000  Level FlightAware ADS-B
Tue 04:41:32 PM 31.8150 -84.8020 332° Northwest 461 531 30,000  Level FlightAware ADS-B
Tue 04:42:12 PM 31.8790 -84.8420 332° Northwest 461 531 30,000  Level FlightAware ADS-B
Tue 04:42:52 PM 31.9430 -84.8820 332° Northwest 461 531 30,000  Level FlightAware ADS-B
Tue 04:43:32 PM 32.0070 -84.9220 332° Northwest 461 531 30,000  Level FlightAware ADS-B
Tue 04:44:22 PM 32.0870 -84.9720 332° Northwest 461 531 30,000  Level FlightAware ADS-B
Tue 04:45:02 PM 32.1510 -85.0120 332° Northwest 461 531 30,000  Level FlightAware ADS-B
Tue 04:45:42 PM 32.2150 -85.0530 332° Northwest 461 531 30,000  Level FlightAware ADS-B
Tue 04:46:22 PM 32.2790 -85.0930 332° Northwest 461 531 30,000  Level FlightAware ADS-B
Tue 04:47:17 PM 32.5530 -85.2410 336° Northwest 30,000  Level FlightAware ADS-B
Tue 04:47:57 PM 32.6310 -85.2900 332° Northwest 456 525 30,000  Level FlightAware ADS-B
Tue 04:48:47 PM 32.7100 -85.3400 332° Northwest 456 525 30,000  Level FlightAware ADS-B
Tue 04:49:57 PM 32.8560 -85.4290 333° Northwest 30,000  Level FlightAware ADS-B
Tue 04:50:37 PM 32.9430 -85.4830 332° Northwest 455 524 30,000  Level FlightAware ADS-B
Tue 04:51:22 PM 33.0160 -85.5310 331° Northwest 455 524 30,000  Level FlightAware ADS-B
Tue 04:51:57 PM 33.0910 -85.5750 334° Northwest 30,000  Level FlightAware ADS-B
Tue 04:52:56 PM 33.2078 -85.6478 334° Northwest 458 527 30,000  Level Atlanta Center
Tue 04:53:56 PM 33.3236 -85.7219 332° Northwest 458 527 30,000  Level Atlanta Center
Tue 04:54:56 PM 33.4269 -85.7911 331° Northwest 467 537 30,000  Level Atlanta Center
Tue 04:55:56 PM 33.5511 -85.8633 334° Northwest 459 528 30,000  Level Atlanta Center
Tue 04:56:56 PM 33.6669 -85.9333 333° Northwest 459 528 30,000  Level Atlanta Center
Tue 04:57:56 PM 33.7806 -86.0083 331° Northwest 459 528 30,000  Level Atlanta Center
Tue 04:58:56 PM 33.8964 -86.0786 333° Northwest 459 528 30,000 584 Level Atlanta Center
Tue 05:04:47 PM 34.5620 -86.5100 333° Northwest 460 529 34,000 614 Climbing FlightAware ADS-B
Tue 05:05:27 PM 34.6310 -86.5560 331° Northwest 460 529 34,000  Level FlightAware ADS-B
Tue 05:06:07 PM 34.6950 -86.5990 331° Northwest 460 529 34,000  Level FlightAware ADS-B
Tue 05:06:29 PM 34.7557 -86.6359 333° Northwest 462 532 34,000  Level FlightAware ADS-B
Tue 05:07:07 PM 34.8283 -86.6833 332° Northwest 461 531 34,000  Level FlightAware ADS-B
Tue 05:07:43 PM 34.8952 -86.7269 332° Northwest 461 531 34,000  Level FlightAware ADS-B
Tue 05:08:13 PM 34.9517 -86.7638 332° Northwest 459 528 34,000  Level FlightAware ADS-B
Tue 05:08:44 PM 35.0091 -86.8016 332° Northwest 459 528 34,000  Level FlightAware ADS-B
Tue 05:09:14 PM 35.0655 -86.8384 332° Northwest 457 526 34,000  Level FlightAware ADS-B
Tue 05:09:46 PM 35.1256 -86.8778 332° Northwest 456 525 34,000  Level FlightAware ADS-B
Tue 05:10:23 PM 35.1950 -86.9236 332° Northwest 455 524 34,000  Level FlightAware ADS-B
Tue 05:10:54 PM 35.2528 -86.9617 332° Northwest 455 524 34,000  Level FlightAware ADS-B
Tue 05:11:25 PM 35.3091 -86.9989 332° Northwest 454 522 34,000  Level FlightAware ADS-B
Tue 05:11:57 PM 35.3540 -87.0300 331° Northwest 453 521 34,000  Level FlightAware ADS-B
Tue 05:12:37 PM 35.4418 -87.0868 332° Northwest 454 522 34,000  Level FlightAware ADS-B
Tue 05:15:12 PM 35.7250 -87.2760 332° Northwest 454 522 34,000  Level FlightAware ADS-B
Tue 05:15:57 PM 35.7990 -87.3260 331° Northwest 454 522 34,000  Level FlightAware ADS-B
Tue 05:16:37 PM 35.8620 -87.3690 331° Northwest 454 522 34,000  Level FlightAware ADS-B
Tue 05:17:17 PM 35.9510 -87.4280 332° Northwest 454 522 34,000  Level FlightAware ADS-B
Tue 05:17:57 PM 36.0130 -87.4700 331° Northwest 454 522 34,000  Level FlightAware ADS-B
Tue 05:18:57 PM 36.1350 -87.5520 332° Northwest 455 524 34,000  Level FlightAware ADS-B
Tue 05:19:37 PM 36.1970 -87.5940 331° Northwest 455 524 34,000  Level FlightAware ADS-B
Tue 05:20:17 PM 36.2600 -87.6380 331° Northwest 455 524 34,000  Level FlightAware ADS-B
Tue 05:20:57 PM 36.3230 -87.6810 331° Northwest 455 524 34,000  Level FlightAware ADS-B
Tue 05:21:37 PM 36.3850 -87.7240 331° Northwest 455 524 34,000  Level FlightAware ADS-B
Tue 05:22:27 PM 36.4630 -87.7780 331° Northwest 455 524 34,000  Level FlightAware ADS-B
Tue 05:23:07 PM 36.5260 -87.8210 331° Northwest 455 524 34,000  Level FlightAware ADS-B
Tue 05:23:47 PM 36.5890 -87.8640 331° Northwest 455 524 34,000  Level FlightAware ADS-B
Tue 05:24:27 PM 36.6510 -87.9070 331° Northwest 455 524 34,000  Level FlightAware ADS-B
Tue 05:25:07 PM 36.7140 -87.9500 331° Northwest 455 524 34,000  Level FlightAware ADS-B
Tue 05:25:57 PM 36.7920 -88.0050 331° Northwest 455 524 34,000  Level FlightAware ADS-B
Tue 05:26:37 PM 36.9940 -88.1410 332° Northwest 454 522 34,000  Level FlightAware ADS-B
Tue 05:27:32 PM 37.0890 -88.2080 331° Northwest 454 522 34,000  Level FlightAware ADS-B
Tue 05:28:12 PM 37.1510 -88.2520 331° Northwest 454 522 34,000  Level FlightAware ADS-B
Tue 05:29:02 PM 37.2600 -88.3260 332° Northwest 454 522 34,000  Level FlightAware ADS-B
Tue 05:29:42 PM 37.3340 -88.3770 331° Northwest 454 522 34,000  Level FlightAware ADS-B
Tue 05:30:22 PM 37.4090 -88.4300 331° Northwest 454 522 34,000  Level FlightAware ADS-B
Tue 05:31:07 PM 37.4890 -88.4870 331° Northwest 454 522 34,000  Level FlightAware ADS-B
Tue 05:31:47 PM 37.5640 -88.5430 329° Northwest 451 519 34,000  Level FlightAware ADS-B
Tue 05:32:32 PM 37.6280 -88.6220 316° Northwest 449 517 34,000  Level FlightAware ADS-B
Tue 05:33:12 PM 37.6880 -88.6990 315° West 449 517 34,000  Level FlightAware ADS-B
Tue 05:33:52 PM 37.7420 -88.7670 315° West 449 517 34,000  Level FlightAware ADS-B
Tue 05:34:37 PM 37.8150 -88.8590 315° West 449 517 34,000  Level FlightAware ADS-B
Tue 05:35:17 PM 37.8720 -88.9260 317° Northwest 451 519 34,000  Level FlightAware ADS-B
Tue 05:36:02 PM 37.9550 -88.9910 328° Northwest 453 521 34,000  Level FlightAware ADS-B
Tue 05:36:42 PM 38.0280 -89.0420 331° Northwest 452 520 34,000  Level FlightAware ADS-B
Tue 05:37:27 PM 38.1110 -89.0980 332° Northwest 452 520 34,000  Level FlightAware ADS-B
Tue 05:38:07 PM 38.1830 -89.1480 331° Northwest 451 519 34,000  Level FlightAware ADS-B
Tue 05:38:47 PM 38.2510 -89.1950 332° Northwest 450 518 34,000  Level FlightAware ADS-B
Tue 05:39:32 PM 38.3350 -89.2540 331° Northwest 450 518 34,000  Level FlightAware ADS-B
Tue 05:40:12 PM 38.4090 -89.3040 332° Northwest 451 519 34,000  Level FlightAware ADS-B
Tue 05:40:57 PM 38.4850 -89.3580 331° Northwest 451 519 34,000  Level FlightAware ADS-B
Tue 05:41:52 PM 38.5970 -89.4350 332° Northwest 452 520 34,000  Level FlightAware ADS-B
Tue 05:42:22 PM 38.6480 -89.4710 331° Northwest 453 521 34,000  Level FlightAware ADS-B
Tue 05:43:17 PM 38.7390 -89.5350 331° Northwest 453 521 34,000  Level FlightAware ADS-B
Tue 05:43:57 PM 38.8210 -89.5920 332° Northwest 452 520 34,000  Level FlightAware ADS-B
Tue 05:44:32 PM 38.8850 -89.6380 331° Northwest 452 520 34,000  Level FlightAware ADS-B
Tue 05:45:22 PM 38.9840 -89.7070 332° Northwest 451 519 34,000  Level FlightAware ADS-B
Tue 05:45:52 PM 39.0310 -89.7410 331° Northwest 450 518 34,000  Level FlightAware ADS-B
Tue 05:46:47 PM 39.1360 -89.8160 331° Northwest 450 518 34,000  Level FlightAware ADS-B
Tue 05:47:27 PM 39.2020 -89.8630 331° Northwest 450 518 34,000  Level FlightAware ADS-B
Tue 05:48:07 PM 39.2640 -89.9070 331° Northwest 450 518 34,000  Level FlightAware ADS-B
Tue 05:48:52 PM 39.3640 -89.9790 331° Northwest 449 517 34,000  Level FlightAware ADS-B
Tue 05:49:32 PM 39.4410 -90.0330 332° Northwest 449 517 34,000  Level FlightAware ADS-B
Tue 05:50:17 PM 39.5180 -90.0890 331° Northwest 449 517 34,000  Level FlightAware ADS-B
Tue 05:50:57 PM 39.5880 -90.1400 331° Northwest 449 517 34,000  Level FlightAware ADS-B
Tue 05:51:37 PM 39.6570 -90.1910 330° Northwest 449 517 34,000  Level FlightAware ADS-B
Tue 05:52:17 PM 39.7370 -90.2480 331° Northwest 448 516 34,000  Level FlightAware ADS-B
Tue 05:53:02 PM 39.8070 -90.3000 330° Northwest 448 516 34,000  Level FlightAware ADS-B
Tue 05:53:42 PM 39.8930 -90.3620 331° Northwest 449 517 34,000  Level FlightAware ADS-B
Tue 05:54:27 PM 39.9680 -90.4170 331° Northwest 449 517 34,000  Level FlightAware ADS-B
Tue 05:55:07 PM 40.0460 -90.4740 331° Northwest 449 517 34,000  Level FlightAware ADS-B
Tue 05:55:47 PM 40.1140 -90.5250 330° Northwest 449 517 34,000  Level FlightAware ADS-B
Tue 05:56:32 PM 40.1960 -90.5850 331° Northwest 449 517 34,000  Level FlightAware ADS-B
Tue 05:57:12 PM 40.2690 -90.6390 331° Northwest 448 516 34,000  Level FlightAware ADS-B
Tue 05:57:57 PM 40.3530 -90.7010 331° Northwest 448 516 34,000  Level FlightAware ADS-B
Tue 05:58:37 PM 40.4240 -90.7550 330° Northwest 448 516 34,000  Level FlightAware ADS-B
Tue 05:59:22 PM 40.5040 -90.8140 331° Northwest 448 516 34,000  Level FlightAware ADS-B
Tue 06:00:02 PM 40.5800 -90.8710 330° Northwest 448 516 34,000  Level FlightAware ADS-B
Tue 06:00:42 PM 40.6520 -90.9250 330° Northwest 448 516 34,000  Level FlightAware ADS-B
Tue 06:01:27 PM 40.7340 -90.9870 330° Northwest 448 516 34,000  Level FlightAware ADS-B
Tue 06:02:07 PM 40.8030 -91.0390 330° Northwest 447 514 34,000  Level FlightAware ADS-B
Tue 06:02:52 PM 40.8850 -91.1010 330° Northwest 447 514 34,000  Level FlightAware ADS-B
Tue 06:03:32 PM 40.9580 -91.1560 330° Northwest 446 513 34,000  Level FlightAware ADS-B
Tue 06:04:17 PM 41.0360 -91.2160 330° Northwest 445 512 34,000  Level FlightAware ADS-B
Tue 06:04:57 PM 41.1050 -91.2680 330° Northwest 447 514 34,000  Level FlightAware ADS-B
Tue 06:05:37 PM 41.1810 -91.3260 330° Northwest 454 522 34,000  Level FlightAware ADS-B
Tue 06:06:22 PM 41.2530 -91.3820 330° Northwest 456 525 34,000  Level FlightAware ADS-B
Tue 06:07:02 PM 41.3340 -91.4440 330° Northwest 456 525 34,000  Level FlightAware ADS-B
Tue 06:07:47 PM 41.4170 -91.5080 330° Northwest 454 522 34,000  Level FlightAware ADS-B
Tue 06:08:27 PM 41.4930 -91.5670 330° Northwest 453 521 34,000  Level FlightAware ADS-B
Tue 06:09:07 PM 41.5640 -91.6220 330° Northwest 453 521 34,000  Level FlightAware ADS-B
Tue 06:09:47 PM 41.6390 -91.6790 330° Northwest 451 519 34,000  Level FlightAware ADS-B
Tue 06:10:52 PM 41.7550 -91.7700 330° Northwest 449 517 34,000  Level FlightAware ADS-B
Tue 06:11:42 PM 41.8380 -91.8350 330° Northwest 448 516 34,000  Level FlightAware ADS-B
Tue 06:12:22 PM 41.9090 -91.8900 330° Northwest 446 513 34,000  Level FlightAware ADS-B
Tue 06:13:07 PM 41.9890 -91.9530 330° Northwest 427 491 34,000  Level FlightAware ADS-B
Tue 06:13:47 PM 42.0560 -92.0060 330° Northwest 414 476 34,000  Level FlightAware ADS-B
Tue 06:14:32 PM 42.1210 -92.0790 320° Northwest 399 459 34,000  Level FlightAware ADS-B
Tue 06:15:12 PM 42.1760 -92.1490 317° Northwest 396 456 34,000  Level FlightAware ADS-B
Tue 06:15:57 PM 42.2390 -92.2260 318° Northwest 407 468 34,000  Level FlightAware ADS-B
Tue 06:16:37 PM 42.2940 -92.2920 318° Northwest 410 472 34,000  Level FlightAware ADS-B
Tue 06:17:17 PM 42.3490 -92.3580 318° Northwest 413 475 34,000  Level FlightAware ADS-B
Tue 06:18:02 PM 42.4170 -92.4380 319° Northwest 414 476 34,000  Level FlightAware ADS-B
Tue 06:18:42 PM 42.4730 -92.5060 318° Northwest 414 476 34,000  Level FlightAware ADS-B
Tue 06:19:22 PM 42.5310 -92.5760 318° Northwest 410 472 34,000  Level FlightAware ADS-B
Tue 06:20:07 PM 42.5950 -92.6520 319° Northwest 393 452 34,000  Level FlightAware ADS-B
Tue 06:20:47 PM 42.6490 -92.7180 318° Northwest 386 444 34,000  Level FlightAware ADS-B
Tue 06:21:32 PM 42.7060 -92.7870 318° Northwest 389 448 34,000  Level FlightAware ADS-B
Tue 06:22:12 PM 42.7620 -92.8530 319° Northwest 392 451 34,000  Level FlightAware ADS-B
Tue 06:22:57 PM 42.8260 -92.9280 319° Northwest 395 455 34,000  Level FlightAware ADS-B
Tue 06:23:37 PM 42.8810 -92.9930 319° Northwest 395 455 34,000 -450 Level FlightAware ADS-B
Tue 06:24:17 PM 42.9370 -93.0580 320° Northwest 400 460 33,400 -918 Descending FlightAware ADS-B
Tue 06:25:02 PM 43.0100 -93.1030 336° Northwest 414 476 32,700 -988 Descending FlightAware ADS-B
Tue 06:25:42 PM 43.0880 -93.1170 353° North 422 486 32,000 -1,624 Descending FlightAware ADS-B
Tue 06:26:27 PM 43.1830 -93.1280 355° North 441 507 30,400 -2,612 Descending FlightAware ADS-B
Tue 06:27:07 PM 43.2600 -93.1350 356° North 431 496 28,300 -3,225 Descending FlightAware ADS-B
Tue 06:27:47 PM 43.3440 -93.1420 357° North 417 480 26,100 -2,612 Descending FlightAware ADS-B
Tue 06:28:32 PM 43.4270 -93.1490 356° North 406 467 24,600 -2,047 Descending FlightAware ADS-B
Tue 06:29:12 PM 43.5000 -93.1560 356° North 397 457 23,200 -2,118 Descending FlightAware ADS-B
Tue 06:29:57 PM 43.5800 -93.1630 356° North 385 443 21,600 -2,100 Descending FlightAware ADS-B
Tue 06:30:32 PM 43.6420 -93.1680 357° North 377 434 20,400 -2,100 Descending FlightAware ADS-B
Tue 06:31:17 PM 43.7240 -93.1760 356° North 367 422 18,800 -1,765 Descending FlightAware ADS-B
Tue 06:31:57 PM 43.7900 -93.1810 357° North 356 410 17,900 -1,765 Descending FlightAware ADS-B
Tue 06:32:42 PM 43.8670 -93.1880 356° North 374 430 16,300 -2,133 Descending FlightAware ADS-B
Tue 06:33:27 PM 43.9450 -93.1950 356° North 368 423 14,700 -2,118 Descending FlightAware ADS-B
Tue 06:34:07 PM 44.0130 -93.2010 356° North 361 415 13,300 -2,025 Descending FlightAware ADS-B
Tue 06:34:47 PM 44.0790 -93.2070 356° North 356 410 12,000 -1,694 Descending FlightAware ADS-B
Tue 06:35:32 PM 44.1500 -93.2130 357° North 343 395 10,900 -988 Descending FlightAware ADS-B
Tue 06:36:12 PM 44.2120 -93.2190 356° North 310 357 10,600 -282 Descending FlightAware ADS-B
Tue 06:36:57 PM 44.2740 -93.2170 North 304 350 10,500 -71 Descending FlightAware ADS-B
Tue 06:37:37 PM 44.3320 -93.2110 North 303 349 10,500 -75 Level FlightAware ADS-B
Tue 06:38:17 PM 44.3850 -93.2050 North 298 343 10,400 -776 Descending FlightAware ADS-B
Tue 06:39:02 PM 44.4460 -93.2030 North 284 327 9,400 -1,286 Descending FlightAware ADS-B
Tue 06:39:27 PM 44.4800 -93.2020 North 274 315 8,900 -1,200 Descending FlightAware ADS-B
Tue 06:39:57 PM 44.5170 -93.2000 North 260 299 8,300 -1,400 Descending FlightAware ADS-B
Tue 06:40:27 PM 44.5530 -93.1990 North 253 291 7,500 -1,527 Descending FlightAware ADS-B
Tue 06:40:52 PM 44.5790 -93.1980 North 250 288 6,900 -1,309 Descending FlightAware ADS-B
Tue 06:41:22 PM 44.6150 -93.1960 North 237 273 6,300 -1,091 Descending FlightAware ADS-B
Tue 06:41:47 PM 44.6430 -93.1950 North 219 252 5,900 -982 Descending FlightAware ADS-B
Tue 06:42:17 PM 44.6710 -93.1940 North 195 224 5,400 -1,091 Descending FlightAware ADS-B
Tue 06:42:42 PM 44.6920 -93.1930 North 180 207 4,900 -1,200 Descending FlightAware ADS-B
Tue 06:42:57 PM 44.7050 -93.1930 360° North 171 197 4,600 -1,000 Descending FlightAware ADS-B
Tue 06:43:12 PM 44.7160 -93.1940 356° North 160 184 4,400 -1,200 Descending FlightAware ADS-B
Tue 06:43:37 PM 44.7350 -93.1990 349° North 153 176 3,800 -1,200 Descending FlightAware ADS-B
Tue 06:44:07 PM 44.7560 -93.2050 349° North 163 188 3,300 -800 Descending FlightAware ADS-B
Tue 06:44:37 PM 44.7780 -93.2100 351° North 160 184 3,000 -764 Descending FlightAware ADS-B
Tue 06:45:02 PM 44.7960 -93.2150 349° North 162 186 2,600 -873 Descending FlightAware ADS-B
Tue 06:45:32 PM 44.8170 -93.2200 350° North 149 171 2,200 -764 Descending FlightAware ADS-B
Tue 06:45:57 PM 44.8350 -93.2240 351° North 149 171 1,900 -655 Descending FlightAware ADS-B
Tue 06:46:27 PM 44.8560 -93.2300 349° North 161 185 1,600 -600 Descending FlightAware ADS-B

Login

Don't have an account? Register now (free) for customized features, flight alerts, and more!